sensor_id;sensor_type;location;lat;lon;timestamp;temperature;humidity
22852;DHT22;11592;45.460;9.240;2023-05-07T00:01:33;21.80;99.90
22852;DHT22;11592;45.460;9.240;2023-05-07T00:04:00;21.80;99.90
22852;DHT22;11592;45.460;9.240;2023-05-07T00:06:27;21.60;99.90
22852;DHT22;11592;45.460;9.240;2023-05-07T00:08:56;21.50;99.90
22852;DHT22;11592;45.460;9.240;2023-05-07T00:11:23;21.30;99.90
22852;DHT22;11592;45.460;9.240;2023-05-07T00:13:50;21.20;99.90
22852;DHT22;11592;45.460;9.240;2023-05-07T00:16:17;21.30;99.90
22852;DHT22;11592;45.460;9.240;2023-05-07T00:18:44;21.40;99.90
22852;DHT22;11592;45.460;9.240;2023-05-07T00:21:11;21.50;99.90
22852;DHT22;11592;45.460;9.240;2023-05-07T00:23:38;21.60;99.90
22852;DHT22;11592;45.460;9.240;2023-05-07T00:26:05;21.70;99.90
22852;DHT22;11592;45.460;9.240;2023-05-07T00:28:31;21.80;99.90
22852;DHT22;11592;45.460;9.240;2023-05-07T00:30:58;21.80;99.90
22852;DHT22;11592;45.460;9.240;2023-05-07T00:33:25;21.90;99.90
22852;DHT22;11592;45.460;9.240;2023-05-07T00:35:53;21.80;99.90
22852;DHT22;11592;45.460;9.240;2023-05-07T00:38:22;21.80;99.90
22852;DHT22;11592;45.460;9.240;2023-05-07T00:40:49;21.70;99.90
22852;DHT22;11592;45.460;9.240;2023-05-07T00:43:18;21.80;99.90
22852;DHT22;11592;45.460;9.240;2023-05-07T00:45:44;21.70;99.90
22852;DHT22;11592;45.460;9.240;2023-05-07T00:48:11;21.70;99.90
22852;DHT22;11592;45.460;9.240;2023-05-07T00:50:39;21.90;99.90
22852;DHT22;11592;45.460;9.240;2023-05-07T00:53:06;22.00;99.90
22852;DHT22;11592;45.460;9.240;2023-05-07T00:55:34;22.00;99.90
22852;DHT22;11592;45.460;9.240;2023-05-07T00:58:01;22.00;99.90
22852;DHT22;11592;45.460;9.240;2023-05-07T01:00:29;22.00;99.90
22852;DHT22;11592;45.460;9.240;2023-05-07T01:02:55;22.10;99.90
22852;DHT22;11592;45.460;9.240;2023-05-07T01:05:24;22.10;99.90
22852;DHT22;11592;45.460;9.240;2023-05-07T01:07:53;22.10;99.90
22852;DHT22;11592;45.460;9.240;2023-05-07T01:10:22;22.10;99.90
22852;DHT22;11592;45.460;9.240;2023-05-07T01:12:49;22.10;99.90
22852;DHT22;11592;45.460;9.240;2023-05-07T01:15:17;22.10;99.90
22852;DHT22;11592;45.460;9.240;2023-05-07T01:17:44;22.10;99.90
22852;DHT22;11592;45.460;9.240;2023-05-07T01:20:12;22.10;99.90
22852;DHT22;11592;45.460;9.240;2023-05-07T01:22:39;22.00;99.90
22852;DHT22;11592;45.460;9.240;2023-05-07T01:25:07;22.00;99.90
22852;DHT22;11592;45.460;9.240;2023-05-07T01:27:35;22.00;99.90
22852;DHT22;11592;45.460;9.240;2023-05-07T01:30:06;22.00;99.90
22852;DHT22;11592;45.460;9.240;2023-05-07T01:32:41;21.90;99.90
22852;DHT22;11592;45.460;9.240;2023-05-07T01:35:11;21.90;99.90
22852;DHT22;11592;45.460;9.240;2023-05-07T01:37:39;21.80;99.90
22852;DHT22;11592;45.460;9.240;2023-05-07T01:40:07;21.80;99.90
22852;DHT22;11592;45.460;9.240;2023-05-07T01:42:35;21.70;99.90
22852;DHT22;11592;45.460;9.240;2023-05-07T01:45:02;21.70;99.90
22852;DHT22;11592;45.460;9.240;2023-05-07T01:47:29;21.60;99.90
22852;DHT22;11592;45.460;9.240;2023-05-07T01:49:57;21.60;99.90
22852;DHT22;11592;45.460;9.240;2023-05-07T01:52:24;21.60;99.90
22852;DHT22;11592;45.460;9.240;2023-05-07T01:54:51;21.40;99.90
22852;DHT22;11592;45.460;9.240;2023-05-07T01:57:18;21.40;99.90
22852;DHT22;11592;45.460;9.240;2023-05-07T01:59:45;21.30;99.90
22852;DHT22;11592;45.460;9.240;2023-05-07T02:02:12;21.30;99.90
22852;DHT22;11592;45.460;9.240;2023-05-07T02:04:39;21.30;99.90
22852;DHT22;11592;45.460;9.240;2023-05-07T02:07:05;21.30;99.90
22852;DHT22;11592;45.460;9.240;2023-05-07T02:09:32;21.30;99.90
22852;DHT22;11592;45.460;9.240;2023-05-07T02:11:59;21.40;99.90
22852;DHT22;11592;45.460;9.240;2023-05-07T02:14:26;21.20;99.90
22852;DHT22;11592;45.460;9.240;2023-05-07T02:16:53;21.10;99.90
22852;DHT22;11592;45.460;9.240;2023-05-07T02:19:19;21.10;99.90
22852;DHT22;11592;45.460;9.240;2023-05-07T02:21:47;21.10;99.90
22852;DHT22;11592;45.460;9.240;2023-05-07T02:24:14;21.00;99.90
22852;DHT22;11592;45.460;9.240;2023-05-07T02:26:41;20.90;99.90
22852;DHT22;11592;45.460;9.240;2023-05-07T02:29:08;20.80;99.90
22852;DHT22;11592;45.460;9.240;2023-05-07T02:31:34;20.50;99.90
22852;DHT22;11592;45.460;9.240;2023-05-07T02:34:01;20.50;99.90
22852;DHT22;11592;45.460;9.240;2023-05-07T02:36:28;20.50;99.90
22852;DHT22;11592;45.460;9.240;2023-05-07T02:38:55;20.50;99.90
22852;DHT22;11592;45.460;9.240;2023-05-07T02:41:22;20.40;99.90
22852;DHT22;11592;45.460;9.240;2023-05-07T02:43:48;20.30;99.90
22852;DHT22;11592;45.460;9.240;2023-05-07T02:46:15;20.20;99.90
22852;DHT22;11592;45.460;9.240;2023-05-07T02:48:42;20.20;99.90
22852;DHT22;11592;45.460;9.240;2023-05-07T02:51:09;20.20;99.90
22852;DHT22;11592;45.460;9.240;2023-05-07T02:53:36;20.30;99.90
22852;DHT22;11592;45.460;9.240;2023-05-07T02:56:03;20.30;99.90
22852;DHT22;11592;45.460;9.240;2023-05-07T02:58:30;20.30;99.90
22852;DHT22;11592;45.460;9.240;2023-05-07T03:00:56;20.40;99.90
22852;DHT22;11592;45.460;9.240;2023-05-07T03:03:23;20.40;99.90
22852;DHT22;11592;45.460;9.240;2023-05-07T03:05:50;20.40;99.90
22852;DHT22;11592;45.460;9.240;2023-05-07T03:08:17;20.50;99.90
22852;DHT22;11592;45.460;9.240;2023-05-07T03:10:44;20.40;99.90
22852;DHT22;11592;45.460;9.240;2023-05-07T03:13:11;20.50;99.90
22852;DHT22;11592;45.460;9.240;2023-05-07T03:15:38;20.40;99.90
22852;DHT22;11592;45.460;9.240;2023-05-07T03:18:04;20.40;99.90
22852;DHT22;11592;45.460;9.240;2023-05-07T03:20:31;20.50;99.90
22852;DHT22;11592;45.460;9.240;2023-05-07T03:22:58;20.40;99.90
22852;DHT22;11592;45.460;9.240;2023-05-07T03:25:25;20.30;99.90
22852;DHT22;11592;45.460;9.240;2023-05-07T03:27:52;20.30;99.90
22852;DHT22;11592;45.460;9.240;2023-05-07T03:30:19;20.30;99.90
22852;DHT22;11592;45.460;9.240;2023-05-07T03:32:46;20.20;99.90
22852;DHT22;11592;45.460;9.240;2023-05-07T03:35:13;20.20;99.90
22852;DHT22;11592;45.460;9.240;2023-05-07T03:37:40;20.20;99.90
22852;DHT22;11592;45.460;9.240;2023-05-07T03:40:07;20.10;99.90
22852;DHT22;11592;45.460;9.240;2023-05-07T03:42:36;20.10;99.90
22852;DHT22;11592;45.460;9.240;2023-05-07T03:45:03;20.10;99.90
22852;DHT22;11592;45.460;9.240;2023-05-07T03:47:30;20.00;99.90
22852;DHT22;11592;45.460;9.240;2023-05-07T03:49:56;19.90;99.90
22852;DHT22;11592;45.460;9.240;2023-05-07T03:52:23;19.90;99.90
22852;DHT22;11592;45.460;9.240;2023-05-07T03:54:53;19.90;99.90
22852;DHT22;11592;45.460;9.240;2023-05-07T03:57:20;19.90;99.90
22852;DHT22;11592;45.460;9.240;2023-05-07T03:59:47;19.90;99.90
22852;DHT22;11592;45.460;9.240;2023-05-07T04:02:13;19.90;99.90
22852;DHT22;11592;45.460;9.240;2023-05-07T04:04:40;19.90;99.90
22852;DHT22;11592;45.460;9.240;2023-05-07T04:07:07;19.80;99.90
22852;DHT22;11592;45.460;9.240;2023-05-07T04:09:34;19.80;99.90
22852;DHT22;11592;45.460;9.240;2023-05-07T04:12:01;19.80;99.90
22852;DHT22;11592;45.460;9.240;2023-05-07T04:14:27;19.70;99.90
22852;DHT22;11592;45.460;9.240;2023-05-07T04:16:54;19.60;99.90
22852;DHT22;11592;45.460;9.240;2023-05-07T04:19:21;19.70;99.90
22852;DHT22;11592;45.460;9.240;2023-05-07T04:21:48;19.70;99.90
22852;DHT22;11592;45.460;9.240;2023-05-07T04:24:15;19.60;99.90
22852;DHT22;11592;45.460;9.240;2023-05-07T04:26:42;19.60;99.90
22852;DHT22;11592;45.460;9.240;2023-05-07T04:29:09;19.50;99.90
22852;DHT22;11592;45.460;9.240;2023-05-07T04:31:35;19.30;99.90
22852;DHT22;11592;45.460;9.240;2023-05-07T04:34:02;19.10;99.90
22852;DHT22;11592;45.460;9.240;2023-05-07T04:36:30;19.00;99.90
22852;DHT22;11592;45.460;9.240;2023-05-07T04:38:57;19.10;99.90
22852;DHT22;11592;45.460;9.240;2023-05-07T04:41:23;19.10;99.90
22852;DHT22;11592;45.460;9.240;2023-05-07T04:43:50;19.20;99.90
22852;DHT22;11592;45.460;9.240;2023-05-07T04:46:18;19.20;99.90
22852;DHT22;11592;45.460;9.240;2023-05-07T04:48:44;19.20;99.90
22852;DHT22;11592;45.460;9.240;2023-05-07T04:51:11;19.30;99.90
22852;DHT22;11592;45.460;9.240;2023-05-07T04:53:38;19.30;99.90
22852;DHT22;11592;45.460;9.240;2023-05-07T04:56:05;19.20;99.90
22852;DHT22;11592;45.460;9.240;2023-05-07T04:58:32;19.20;99.90
22852;DHT22;11592;45.460;9.240;2023-05-07T05:00:59;19.30;99.90
22852;DHT22;11592;45.460;9.240;2023-05-07T05:03:27;19.30;99.90
22852;DHT22;11592;45.460;9.240;2023-05-07T05:05:54;19.30;99.90
22852;DHT22;11592;45.460;9.240;2023-05-07T05:08:20;19.30;99.90
22852;DHT22;11592;45.460;9.240;2023-05-07T05:10:47;19.40;99.90
22852;DHT22;11592;45.460;9.240;2023-05-07T05:13:16;19.40;99.90
22852;DHT22;11592;45.460;9.240;2023-05-07T05:15:43;19.50;99.90
22852;DHT22;11592;45.460;9.240;2023-05-07T05:18:10;19.50;99.90
22852;DHT22;11592;45.460;9.240;2023-05-07T05:20:37;19.40;99.90
22852;DHT22;11592;45.460;9.240;2023-05-07T05:23:03;19.50;99.90
22852;DHT22;11592;45.460;9.240;2023-05-07T05:25:30;19.40;99.90
22852;DHT22;11592;45.460;9.240;2023-05-07T05:27:57;19.40;99.90
22852;DHT22;11592;45.460;9.240;2023-05-07T05:30:24;19.50;99.90
22852;DHT22;11592;45.460;9.240;2023-05-07T05:32:50;19.50;99.90
22852;DHT22;11592;45.460;9.240;2023-05-07T05:35:17;19.50;99.90
22852;DHT22;11592;45.460;9.240;2023-05-07T05:37:44;19.50;99.90
22852;DHT22;11592;45.460;9.240;2023-05-07T05:40:11;19.50;99.90
22852;DHT22;11592;45.460;9.240;2023-05-07T05:42:38;19.60;99.90
22852;DHT22;11592;45.460;9.240;2023-05-07T05:45:05;19.80;99.90
22852;DHT22;11592;45.460;9.240;2023-05-07T05:47:32;19.90;99.90
22852;DHT22;11592;45.460;9.240;2023-05-07T05:49:59;20.00;99.90
22852;DHT22;11592;45.460;9.240;2023-05-07T05:52:26;20.10;99.90
22852;DHT22;11592;45.460;9.240;2023-05-07T05:54:53;20.00;99.90
22852;DHT22;11592;45.460;9.240;2023-05-07T05:57:20;20.10;99.90
22852;DHT22;11592;45.460;9.240;2023-05-07T05:59:47;20.10;99.90
22852;DHT22;11592;45.460;9.240;2023-05-07T06:02:14;20.20;99.90
22852;DHT22;11592;45.460;9.240;2023-05-07T06:04:41;20.20;99.90
22852;DHT22;11592;45.460;9.240;2023-05-07T06:07:09;20.30;99.90
22852;DHT22;11592;45.460;9.240;2023-05-07T06:09:36;20.30;99.90
22852;DHT22;11592;45.460;9.240;2023-05-07T06:12:03;20.20;99.90
22852;DHT22;11592;45.460;9.240;2023-05-07T06:14:30;20.20;99.90
22852;DHT22;11592;45.460;9.240;2023-05-07T06:16:57;20.30;99.90
22852;DHT22;11592;45.460;9.240;2023-05-07T06:19:24;20.30;99.90
22852;DHT22;11592;45.460;9.240;2023-05-07T06:21:53;20.40;99.90
22852;DHT22;11592;45.460;9.240;2023-05-07T06:24:20;20.40;99.90
22852;DHT22;11592;45.460;9.240;2023-05-07T06:26:46;20.40;99.90
22852;DHT22;11592;45.460;9.240;2023-05-07T06:29:13;20.40;99.90
22852;DHT22;11592;45.460;9.240;2023-05-07T06:31:40;20.50;99.90
22852;DHT22;11592;45.460;9.240;2023-05-07T06:34:07;20.60;99.90
22852;DHT22;11592;45.460;9.240;2023-05-07T06:36:34;20.60;99.90
22852;DHT22;11592;45.460;9.240;2023-05-07T06:39:01;20.60;99.90
22852;DHT22;11592;45.460;9.240;2023-05-07T06:41:28;20.60;99.90
22852;DHT22;11592;45.460;9.240;2023-05-07T06:43:55;20.60;99.90
22852;DHT22;11592;45.460;9.240;2023-05-07T06:46:22;20.50;99.90
22852;DHT22;11592;45.460;9.240;2023-05-07T06:48:48;20.50;99.90
22852;DHT22;11592;45.460;9.240;2023-05-07T06:51:15;20.50;99.90
22852;DHT22;11592;45.460;9.240;2023-05-07T06:53:42;20.50;99.90
22852;DHT22;11592;45.460;9.240;2023-05-07T06:56:09;20.50;99.90
22852;DHT22;11592;45.460;9.240;2023-05-07T06:58:37;20.60;99.90
22852;DHT22;11592;45.460;9.240;2023-05-07T07:01:04;20.80;99.90
22852;DHT22;11592;45.460;9.240;2023-05-07T07:03:30;20.70;99.90
22852;DHT22;11592;45.460;9.240;2023-05-07T07:05:57;20.90;99.90
22852;DHT22;11592;45.460;9.240;2023-05-07T07:08:24;20.90;99.90
22852;DHT22;11592;45.460;9.240;2023-05-07T07:10:51;21.00;99.90
22852;DHT22;11592;45.460;9.240;2023-05-07T07:13:17;21.30;99.90
22852;DHT22;11592;45.460;9.240;2023-05-07T07:15:45;21.40;99.90
22852;DHT22;11592;45.460;9.240;2023-05-07T07:18:12;21.40;99.90
22852;DHT22;11592;45.460;9.240;2023-05-07T07:20:39;21.40;99.90
22852;DHT22;11592;45.460;9.240;2023-05-07T07:23:06;21.60;99.90
22852;DHT22;11592;45.460;9.240;2023-05-07T07:25:33;21.60;99.90
22852;DHT22;11592;45.460;9.240;2023-05-07T07:28:00;21.80;99.90
22852;DHT22;11592;45.460;9.240;2023-05-07T07:30:27;21.90;99.90
22852;DHT22;11592;45.460;9.240;2023-05-07T07:32:54;21.80;99.90
22852;DHT22;11592;45.460;9.240;2023-05-07T07:35:21;21.80;99.90
22852;DHT22;11592;45.460;9.240;2023-05-07T07:37:48;21.90;99.90
22852;DHT22;11592;45.460;9.240;2023-05-07T07:40:16;22.00;99.90
22852;DHT22;11592;45.460;9.240;2023-05-07T07:42:43;21.80;99.90
22852;DHT22;11592;45.460;9.240;2023-05-07T07:45:10;21.90;99.90
22852;DHT22;11592;45.460;9.240;2023-05-07T07:47:37;21.90;99.90
22852;DHT22;11592;45.460;9.240;2023-05-07T07:50:05;22.00;99.90
22852;DHT22;11592;45.460;9.240;2023-05-07T07:52:32;21.70;99.90
22852;DHT22;11592;45.460;9.240;2023-05-07T07:54:59;21.50;99.90
22852;DHT22;11592;45.460;9.240;2023-05-07T07:57:26;21.60;99.90
22852;DHT22;11592;45.460;9.240;2023-05-07T07:59:53;21.80;99.90
22852;DHT22;11592;45.460;9.240;2023-05-07T08:02:19;22.00;99.90
22852;DHT22;11592;45.460;9.240;2023-05-07T08:04:47;22.30;99.90
22852;DHT22;11592;45.460;9.240;2023-05-07T08:07:13;22.50;99.90
22852;DHT22;11592;45.460;9.240;2023-05-07T08:09:40;22.70;99.90
22852;DHT22;11592;45.460;9.240;2023-05-07T08:12:07;22.90;99.90
22852;DHT22;11592;45.460;9.240;2023-05-07T08:14:35;23.00;99.90
22852;DHT22;11592;45.460;9.240;2023-05-07T08:17:03;23.10;99.90
22852;DHT22;11592;45.460;9.240;2023-05-07T08:19:29;23.30;99.90
22852;DHT22;11592;45.460;9.240;2023-05-07T08:21:56;23.30;99.90
22852;DHT22;11592;45.460;9.240;2023-05-07T08:24:23;23.10;99.90
22852;DHT22;11592;45.460;9.240;2023-05-07T08:26:50;23.20;99.90
22852;DHT22;11592;45.460;9.240;2023-05-07T08:29:17;23.30;99.90
22852;DHT22;11592;45.460;9.240;2023-05-07T08:31:44;23.50;99.90
22852;DHT22;11592;45.460;9.240;2023-05-07T08:34:11;23.60;99.90
22852;DHT22;11592;45.460;9.240;2023-05-07T08:36:37;23.60;99.90
22852;DHT22;11592;45.460;9.240;2023-05-07T08:39:04;23.60;99.90
22852;DHT22;11592;45.460;9.240;2023-05-07T08:41:31;23.70;99.90
22852;DHT22;11592;45.460;9.240;2023-05-07T08:43:58;23.80;99.90
22852;DHT22;11592;45.460;9.240;2023-05-07T08:46:31;23.80;99.90
22852;DHT22;11592;45.460;9.240;2023-05-07T08:48:59;23.60;99.90
22852;DHT22;11592;45.460;9.240;2023-05-07T08:51:26;23.60;99.90
22852;DHT22;11592;45.460;9.240;2023-05-07T08:53:53;23.40;99.90
22852;DHT22;11592;45.460;9.240;2023-05-07T08:56:20;23.50;99.90
22852;DHT22;11592;45.460;9.240;2023-05-07T08:58:49;23.60;99.90
22852;DHT22;11592;45.460;9.240;2023-05-07T09:01:16;23.60;99.90
22852;DHT22;11592;45.460;9.240;2023-05-07T09:03:46;23.70;99.90
22852;DHT22;11592;45.460;9.240;2023-05-07T09:06:13;23.80;99.90
22852;DHT22;11592;45.460;9.240;2023-05-07T09:08:40;23.90;99.90
22852;DHT22;11592;45.460;9.240;2023-05-07T09:11:07;24.10;99.90
22852;DHT22;11592;45.460;9.240;2023-05-07T09:13:34;23.70;99.90
22852;DHT22;11592;45.460;9.240;2023-05-07T09:16:11;23.70;99.90
22852;DHT22;11592;45.460;9.240;2023-05-07T09:18:44;24.20;99.90
22852;DHT22;11592;45.460;9.240;2023-05-07T09:21:15;24.50;99.90
22852;DHT22;11592;45.460;9.240;2023-05-07T09:23:42;24.50;99.90
22852;DHT22;11592;45.460;9.240;2023-05-07T09:26:09;24.30;99.90
22852;DHT22;11592;45.460;9.240;2023-05-07T09:28:39;24.30;99.90
22852;DHT22;11592;45.460;9.240;2023-05-07T09:31:09;24.60;99.90
22852;DHT22;11592;45.460;9.240;2023-05-07T09:33:36;24.90;99.90
22852;DHT22;11592;45.460;9.240;2023-05-07T09:36:04;25.10;99.90
22852;DHT22;11592;45.460;9.240;2023-05-07T09:38:33;25.40;99.90
22852;DHT22;11592;45.460;9.240;2023-05-07T09:41:11;25.50;99.90
22852;DHT22;11592;45.460;9.240;2023-05-07T09:43:40;25.40;99.90
22852;DHT22;11592;45.460;9.240;2023-05-07T09:46:14;25.30;99.90
22852;DHT22;11592;45.460;9.240;2023-05-07T09:48:43;25.40;99.90
22852;DHT22;11592;45.460;9.240;2023-05-07T09:51:33;25.70;99.90
22852;DHT22;11592;45.460;9.240;2023-05-07T09:54:04;25.70;99.90
22852;DHT22;11592;45.460;9.240;2023-05-07T09:56:31;25.70;99.90
22852;DHT22;11592;45.460;9.240;2023-05-07T09:59:00;25.70;99.90
22852;DHT22;11592;45.460;9.240;2023-05-07T10:01:27;25.40;99.90
22852;DHT22;11592;45.460;9.240;2023-05-07T10:03:54;25.20;99.90
22852;DHT22;11592;45.460;9.240;2023-05-07T10:06:24;25.40;99.90
22852;DHT22;11592;45.460;9.240;2023-05-07T10:08:52;25.70;99.90
22852;DHT22;11592;45.460;9.240;2023-05-07T10:11:21;25.70;99.90
22852;DHT22;11592;45.460;9.240;2023-05-07T10:13:48;25.50;99.90
22852;DHT22;11592;45.460;9.240;2023-05-07T10:16:15;25.70;99.90
22852;DHT22;11592;45.460;9.240;2023-05-07T10:18:43;25.90;99.90
22852;DHT22;11592;45.460;9.240;2023-05-07T10:23:40;26.10;99.90
22852;DHT22;11592;45.460;9.240;2023-05-07T10:26:08;26.10;99.90
22852;DHT22;11592;45.460;9.240;2023-05-07T10:28:39;26.00;99.90
22852;DHT22;11592;45.460;9.240;2023-05-07T10:31:14;25.90;99.90
22852;DHT22;11592;45.460;9.240;2023-05-07T10:33:47;26.10;99.90
22852;DHT22;11592;45.460;9.240;2023-05-07T10:36:15;26.20;99.90
22852;DHT22;11592;45.460;9.240;2023-05-07T10:38:43;26.00;99.90
22852;DHT22;11592;45.460;9.240;2023-05-07T10:41:11;25.90;99.90
22852;DHT22;11592;45.460;9.240;2023-05-07T10:43:42;25.90;99.90
22852;DHT22;11592;45.460;9.240;2023-05-07T10:46:11;25.60;99.90
22852;DHT22;11592;45.460;9.240;2023-05-07T10:51:32;25.90;99.90
22852;DHT22;11592;45.460;9.240;2023-05-07T10:56:42;26.40;99.90
22852;DHT22;11592;45.460;9.240;2023-05-07T11:01:54;26.80;99.90
22852;DHT22;11592;45.460;9.240;2023-05-07T11:04:21;26.90;99.90
22852;DHT22;11592;45.460;9.240;2023-05-07T11:15:11;28.20;99.90
22852;DHT22;11592;45.460;9.240;2023-05-07T11:17:58;28.40;99.90
22852;DHT22;11592;45.460;9.240;2023-05-07T11:20:54;28.40;99.90
22852;DHT22;11592;45.460;9.240;2023-05-07T11:26:05;28.20;99.90
22852;DHT22;11592;45.460;9.240;2023-05-07T11:28:40;28.30;99.90
22852;DHT22;11592;45.460;9.240;2023-05-07T11:31:08;28.40;99.90
22852;DHT22;11592;45.460;9.240;2023-05-07T11:33:36;28.50;99.90
22852;DHT22;11592;45.460;9.240;2023-05-07T11:36:03;28.20;99.90
22852;DHT22;11592;45.460;9.240;2023-05-07T11:38:34;28.50;99.90
22852;DHT22;11592;45.460;9.240;2023-05-07T11:41:01;28.40;99.90
22852;DHT22;11592;45.460;9.240;2023-05-07T11:43:29;28.30;99.80
22852;DHT22;11592;45.460;9.240;2023-05-07T11:46:11;28.20;99.90
22852;DHT22;11592;45.460;9.240;2023-05-07T11:48:38;28.30;99.90
22852;DHT22;11592;45.460;9.240;2023-05-07T11:51:06;28.50;99.50
22852;DHT22;11592;45.460;9.240;2023-05-07T11:53:40;28.60;98.60
22852;DHT22;11592;45.460;9.240;2023-05-07T11:56:09;28.70;98.50
22852;DHT22;11592;45.460;9.240;2023-05-07T11:58:36;28.70;98.60
22852;DHT22;11592;45.460;9.240;2023-05-07T12:01:03;29.00;99.70
22852;DHT22;11592;45.460;9.240;2023-05-07T12:03:30;29.30;99.40
22852;DHT22;11592;45.460;9.240;2023-05-07T12:06:01;29.40;98.70
22852;DHT22;11592;45.460;9.240;2023-05-07T12:08:29;29.40;98.00
22852;DHT22;11592;45.460;9.240;2023-05-07T12:10:56;29.40;97.60
22852;DHT22;11592;45.460;9.240;2023-05-07T12:13:26;29.80;97.30
22852;DHT22;11592;45.460;9.240;2023-05-07T12:15:55;30.30;96.20
22852;DHT22;11592;45.460;9.240;2023-05-07T12:18:23;30.80;97.50
22852;DHT22;11592;45.460;9.240;2023-05-07T12:20:50;30.90;94.70
22852;DHT22;11592;45.460;9.240;2023-05-07T12:23:17;30.90;96.00
22852;DHT22;11592;45.460;9.240;2023-05-07T12:25:44;30.60;94.40
22852;DHT22;11592;45.460;9.240;2023-05-07T12:28:15;30.20;95.00
22852;DHT22;11592;45.460;9.240;2023-05-07T12:30:44;30.00;95.60
22852;DHT22;11592;45.460;9.240;2023-05-07T12:33:11;30.00;94.90
22852;DHT22;11592;45.460;9.240;2023-05-07T12:35:41;30.00;95.60
22852;DHT22;11592;45.460;9.240;2023-05-07T12:38:09;29.90;97.10
22852;DHT22;11592;45.460;9.240;2023-05-07T12:40:37;29.70;97.30
22852;DHT22;11592;45.460;9.240;2023-05-07T12:43:04;29.70;95.80
22852;DHT22;11592;45.460;9.240;2023-05-07T12:45:31;29.80;94.90
22852;DHT22;11592;45.460;9.240;2023-05-07T12:48:03;29.70;92.90
22852;DHT22;11592;45.460;9.240;2023-05-07T12:50:33;29.50;93.40
22852;DHT22;11592;45.460;9.240;2023-05-07T12:53:00;29.10;93.20
22852;DHT22;11592;45.460;9.240;2023-05-07T12:55:32;28.90;93.60
22852;DHT22;11592;45.460;9.240;2023-05-07T12:58:06;29.20;94.70
22852;DHT22;11592;45.460;9.240;2023-05-07T13:00:37;30.20;94.50
22852;DHT22;11592;45.460;9.240;2023-05-07T13:03:04;31.10;92.70
22852;DHT22;11592;45.460;9.240;2023-05-07T13:05:32;31.50;92.10
22852;DHT22;11592;45.460;9.240;2023-05-07T13:07:59;31.80;91.70
22852;DHT22;11592;45.460;9.240;2023-05-07T13:10:26;32.20;92.60
22852;DHT22;11592;45.460;9.240;2023-05-07T13:12:53;32.50;92.40
22852;DHT22;11592;45.460;9.240;2023-05-07T13:15:20;32.90;92.40
22852;DHT22;11592;45.460;9.240;2023-05-07T13:17:47;32.80;92.10
22852;DHT22;11592;45.460;9.240;2023-05-07T13:20:14;32.90;91.30
22852;DHT22;11592;45.460;9.240;2023-05-07T13:22:41;32.50;89.70
22852;DHT22;11592;45.460;9.240;2023-05-07T13:25:08;32.20;90.20
22852;DHT22;11592;45.460;9.240;2023-05-07T13:27:36;32.30;89.70
22852;DHT22;11592;45.460;9.240;2023-05-07T13:30:04;32.50;88.60
22852;DHT22;11592;45.460;9.240;2023-05-07T13:32:32;32.50;85.70
22852;DHT22;11592;45.460;9.240;2023-05-07T13:34:58;32.40;87.50
22852;DHT22;11592;45.460;9.240;2023-05-07T13:37:26;32.80;87.80
22852;DHT22;11592;45.460;9.240;2023-05-07T13:39:52;32.90;83.90
22852;DHT22;11592;45.460;9.240;2023-05-07T13:42:19;32.20;84.30
22852;DHT22;11592;45.460;9.240;2023-05-07T13:44:46;32.20;85.50
22852;DHT22;11592;45.460;9.240;2023-05-07T13:47:13;31.80;82.00
22852;DHT22;11592;45.460;9.240;2023-05-07T13:49:39;31.20;83.10
22852;DHT22;11592;45.460;9.240;2023-05-07T13:52:06;31.40;83.70
22852;DHT22;11592;45.460;9.240;2023-05-07T13:54:33;31.30;79.90
22852;DHT22;11592;45.460;9.240;2023-05-07T13:57:00;31.30;79.60
22852;DHT22;11592;45.460;9.240;2023-05-07T13:59:27;31.80;78.20
22852;DHT22;11592;45.460;9.240;2023-05-07T14:01:53;31.60;77.30
22852;DHT22;11592;45.460;9.240;2023-05-07T14:04:21;32.70;77.90
22852;DHT22;11592;45.460;9.240;2023-05-07T14:06:48;32.90;76.60
22852;DHT22;11592;45.460;9.240;2023-05-07T14:09:15;34.20;74.90
22852;DHT22;11592;45.460;9.240;2023-05-07T14:11:42;34.50;74.90
22852;DHT22;11592;45.460;9.240;2023-05-07T14:14:09;34.50;74.30
22852;DHT22;11592;45.460;9.240;2023-05-07T14:16:38;35.00;71.50
22852;DHT22;11592;45.460;9.240;2023-05-07T14:19:05;35.00;70.60
22852;DHT22;11592;45.460;9.240;2023-05-07T14:21:32;35.30;68.50
22852;DHT22;11592;45.460;9.240;2023-05-07T14:23:58;35.40;68.00
22852;DHT22;11592;45.460;9.240;2023-05-07T14:26:26;35.60;66.40
22852;DHT22;11592;45.460;9.240;2023-05-07T14:28:53;35.70;66.40
22852;DHT22;11592;45.460;9.240;2023-05-07T14:31:21;35.90;69.30
22852;DHT22;11592;45.460;9.240;2023-05-07T14:33:48;35.50;69.20
22852;DHT22;11592;45.460;9.240;2023-05-07T14:36:17;34.90;68.80
22852;DHT22;11592;45.460;9.240;2023-05-07T14:38:47;33.90;69.70
22852;DHT22;11592;45.460;9.240;2023-05-07T14:41:13;33.40;72.00
22852;DHT22;11592;45.460;9.240;2023-05-07T14:43:41;32.70;71.40
22852;DHT22;11592;45.460;9.240;2023-05-07T14:46:08;32.80;74.00
22852;DHT22;11592;45.460;9.240;2023-05-07T14:48:34;32.30;72.30
22852;DHT22;11592;45.460;9.240;2023-05-07T14:51:01;31.70;74.10
22852;DHT22;11592;45.460;9.240;2023-05-07T14:53:28;31.50;77.00
22852;DHT22;11592;45.460;9.240;2023-05-07T14:55:55;31.20;78.50
22852;DHT22;11592;45.460;9.240;2023-05-07T14:58:22;30.80;78.00
22852;DHT22;11592;45.460;9.240;2023-05-07T15:00:49;30.30;79.30
22852;DHT22;11592;45.460;9.240;2023-05-07T15:03:15;30.20;77.90
22852;DHT22;11592;45.460;9.240;2023-05-07T15:05:42;29.50;78.80
22852;DHT22;11592;45.460;9.240;2023-05-07T15:08:09;29.20;80.60
22852;DHT22;11592;45.460;9.240;2023-05-07T15:10:37;29.10;80.90
22852;DHT22;11592;45.460;9.240;2023-05-07T15:13:09;29.50;81.00
22852;DHT22;11592;45.460;9.240;2023-05-07T15:15:41;30.20;80.10
22852;DHT22;11592;45.460;9.240;2023-05-07T15:18:09;30.70;78.50
22852;DHT22;11592;45.460;9.240;2023-05-07T15:20:36;31.10;78.40
22852;DHT22;11592;45.460;9.240;2023-05-07T15:23:03;31.40;77.60
22852;DHT22;11592;45.460;9.240;2023-05-07T15:25:32;31.70;76.30
22852;DHT22;11592;45.460;9.240;2023-05-07T15:28:00;31.70;77.50
22852;DHT22;11592;45.460;9.240;2023-05-07T15:30:27;31.50;76.40
22852;DHT22;11592;45.460;9.240;2023-05-07T15:32:54;30.70;76.90
22852;DHT22;11592;45.460;9.240;2023-05-07T15:35:20;30.30;78.50
22852;DHT22;11592;45.460;9.240;2023-05-07T15:37:48;30.20;78.60
22852;DHT22;11592;45.460;9.240;2023-05-07T15:40:19;30.30;79.40
22852;DHT22;11592;45.460;9.240;2023-05-07T15:42:46;30.20;80.90
22852;DHT22;11592;45.460;9.240;2023-05-07T15:45:13;29.70;80.10
22852;DHT22;11592;45.460;9.240;2023-05-07T15:47:40;29.40;81.50
22852;DHT22;11592;45.460;9.240;2023-05-07T15:50:07;29.50;81.10
22852;DHT22;11592;45.460;9.240;2023-05-07T15:52:34;29.40;81.60
22852;DHT22;11592;45.460;9.240;2023-05-07T15:55:01;29.20;83.10